createdAt,value
2023-01-31T00:01:31.167Z,99433.59
2023-01-31T00:03:02.965Z,99433.59
2023-01-31T00:04:35.077Z,99434.44
2023-01-31T00:06:14.510Z,99435.28
2023-01-31T00:07:48.139Z,99429.34
2023-01-31T00:09:20.249Z,99422.53
2023-01-31T00:10:52.118Z,99414.88
2023-01-31T00:12:23.952Z,99421.72
2023-01-31T00:13:55.899Z,99418.31
2023-01-31T00:15:27.768Z,99418.31
2023-01-31T00:16:59.592Z,99408.09
2023-01-31T00:18:31.522Z,99415.81
2023-01-31T00:20:03.491Z,99427.81
2023-01-31T00:21:35.975Z,99433.75
2023-01-31T00:23:08.150Z,99433.59
2023-01-31T00:24:40.065Z,99438.75
2023-01-31T00:26:13.818Z,99440.47
2023-01-31T00:27:45.679Z,99440.50
2023-01-31T00:29:17.527Z,99441.38
2023-01-31T00:30:49.382Z,99433.78
2023-01-31T00:32:21.416Z,99434.75
2023-01-31T00:33:54.090Z,99432.22
2023-01-31T00:35:26.063Z,99437.38
2023-01-31T00:36:58.158Z,99443.28
2023-01-31T00:38:29.992Z,99433.06
2023-01-31T00:40:01.931Z,99435.66
2023-01-31T00:41:34.574Z,99429.78
2023-01-31T00:43:06.479Z,99425.56
2023-01-31T00:44:38.303Z,99419.66
2023-01-31T00:46:10.222Z,99423.94
2023-01-31T00:47:42.183Z,99417.97
2023-01-31T00:49:14.034Z,99405.22
2023-01-31T00:50:45.869Z,99404.38
2023-01-31T00:52:17.977Z,99413.75
2023-01-31T00:53:50.697Z,99412.91
2023-01-31T00:55:22.637Z,99409.50
2023-01-31T00:56:54.479Z,99406.06
2023-01-31T00:58:26.348Z,99403.53
2023-01-31T00:59:58.159Z,99400.16
2023-01-31T01:01:30.140Z,99393.31
2023-01-31T01:03:01.986Z,99388.19
2023-01-31T01:04:34.422Z,99395.84
2023-01-31T01:06:07.438Z,99398.41
2023-01-31T01:07:39.324Z,99400.94
2023-01-31T01:09:11.193Z,99395.00
2023-01-31T01:10:43.035Z,99400.97
2023-01-31T01:12:14.981Z,99393.28
2023-01-31T01:13:46.815Z,99388.19
2023-01-31T01:15:19.067Z,99401.75
2023-01-31T01:16:51.100Z,99398.34
2023-01-31T01:18:24.088Z,99406.00
2023-01-31T01:19:56.029Z,99400.91
2023-01-31T01:23:07.432Z,99394.06
2023-01-31T01:24:43.123Z,99390.66
2023-01-31T01:26:16.169Z,99400.84
2023-01-31T01:27:48.000Z,99398.25
2023-01-31T01:29:19.955Z,99400.78
2023-01-31T01:30:51.802Z,99397.41
2023-01-31T01:32:23.739Z,99405.91
2023-01-31T01:33:56.521Z,99406.72
2023-01-31T01:35:28.340Z,99401.63
2023-01-31T01:37:00.200Z,99399.06
2023-01-31T01:38:34.164Z,99396.53
2023-01-31T01:40:06.272Z,99386.34
2023-01-31T01:41:38.865Z,99397.38
2023-01-31T01:43:15.091Z,99396.53
2023-01-31T01:44:50.017Z,99397.38
2023-01-31T01:46:21.848Z,99396.50
2023-01-31T01:47:54.451Z,99396.50
2023-01-31T01:49:29.063Z,99399.03
2023-01-31T01:51:01.510Z,99384.53
2023-01-31T01:52:34.048Z,99376.88
2023-01-31T01:54:07.308Z,99376.91
2023-01-31T01:55:49.933Z,99390.53
2023-01-31T01:57:23.055Z,99386.25
2023-01-31T01:59:01.000Z,99392.19
2023-01-31T02:00:32.863Z,99385.38
2023-01-31T02:02:04.746Z,99381.13
2023-01-31T02:03:36.596Z,99389.59
2023-01-31T02:05:08.623Z,99385.31
2023-01-31T02:06:40.681Z,99397.19
2023-01-31T02:08:13.204Z,99396.41
2023-01-31T02:09:54.240Z,99391.34
2023-01-31T02:11:27.573Z,99392.19
2023-01-31T02:12:59.391Z,99399.91
2023-01-31T02:14:31.245Z,99404.25
2023-01-31T02:16:03.052Z,99389.00
2023-01-31T02:17:35.232Z,99395.00
2023-01-31T02:19:09.956Z,99403.56
2023-01-31T02:20:51.064Z,99388.31
2023-01-31T02:22:26.280Z,99399.47
2023-01-31T02:24:10.460Z,99405.47
2023-01-31T02:25:45.305Z,99407.28
2023-01-31T02:27:32.198Z,99410.75
2023-01-31T02:29:16.037Z,99411.69
2023-01-31T02:31:06.306Z,99421.09
2023-01-31T02:32:47.081Z,99434.78
2023-01-31T02:34:30.981Z,99430.53
2023-01-31T02:36:12.253Z,99435.69
2023-01-31T02:37:47.008Z,99438.31
2023-01-31T02:39:23.292Z,99446.03
2023-01-31T02:41:13.559Z,99438.34
2023-01-31T02:42:54.855Z,99445.22
2023-01-31T02:44:44.874Z,99452.03
2023-01-31T02:46:16.962Z,99450.34
2023-01-31T02:48:05.108Z,99446.91
2023-01-31T02:49:41.837Z,99460.63
2023-01-31T02:51:19.166Z,99452.06
2023-01-31T02:52:58.597Z,99455.47
2023-01-31T02:54:50.559Z,99460.59
2023-01-31T02:56:25.201Z,99465.78
2023-01-31T02:57:57.656Z,99462.34
2023-01-31T02:59:32.264Z,99458.94
2023-01-31T03:01:04.507Z,99448.75
2023-01-31T03:02:36.651Z,99456.38
2023-01-31T03:04:09.702Z,99452.13
2023-01-31T03:05:43.075Z,99458.16
2023-01-31T03:07:16.276Z,99468.38
2023-01-31T03:08:48.139Z,99463.25
2023-01-31T03:10:33.648Z,99461.53
2023-01-31T03:12:06.705Z,99462.41
2023-01-31T03:13:47.187Z,99461.56
2023-01-31T03:15:51.502Z,99470.09
2023-01-31T03:17:35.394Z,99471.81
2023-01-31T03:19:14.182Z,99459.88
2023-01-31T03:20:48.740Z,99477.78
2023-01-31T03:22:24.525Z,99471.81
2023-01-31T03:23:56.450Z,99453.84
2023-01-31T03:25:29.862Z,99462.41
2023-01-31T03:27:02.971Z,99459.88
2023-01-31T03:28:37.406Z,99470.97
2023-01-31T03:30:10.625Z,99471.00
2023-01-31T03:31:44.708Z,99470.13
2023-01-31T03:33:24.443Z,99470.94
2023-01-31T03:34:56.334Z,99477.78
2023-01-31T03:38:26.469Z,99472.66
2023-01-31T03:40:17.456Z,99476.94
2023-01-31T03:42:07.802Z,99463.28
2023-01-31T03:43:59.074Z,99478.63
2023-01-31T03:45:33.909Z,99476.09
2023-01-31T03:47:07.661Z,99484.63
2023-01-31T03:48:41.332Z,99507.66
2023-01-31T03:50:33.588Z,99509.38
2023-01-31T03:52:07.853Z,99507.72
2023-01-31T03:53:46.895Z,99503.44
2023-01-31T03:55:42.066Z,99506.03
2023-01-31T03:57:14.339Z,99507.72
2023-01-31T03:58:48.030Z,99510.28
2023-01-31T04:00:20.196Z,99509.41
2023-01-31T04:01:52.533Z,99515.41
2023-01-31T04:03:27.271Z,99506.88
2023-01-31T04:05:10.071Z,99524.84
2023-01-31T04:06:41.936Z,99524.75
2023-01-31T04:08:14.324Z,99520.50
2023-01-31T04:09:46.314Z,99508.56
2023-01-31T04:11:20.068Z,99520.47
2023-01-31T04:12:52.000Z,99520.47
2023-01-31T04:14:23.900Z,99518.75
2023-01-31T04:15:55.928Z,99522.19
2023-01-31T04:17:27.983Z,99526.44
2023-01-31T04:18:59.887Z,99528.19
2023-01-31T04:20:32.067Z,99529.03
2023-01-31T04:22:03.905Z,99525.63
2023-01-31T04:23:36.054Z,99530.75
2023-01-31T04:25:08.343Z,99525.59
2023-01-31T04:26:40.406Z,99523.88
2023-01-31T04:28:12.360Z,99518.72
2023-01-31T04:29:44.210Z,99516.22
2023-01-31T04:31:16.196Z,99517.94
2023-01-31T04:32:48.219Z,99512.84
2023-01-31T04:34:20.048Z,99521.34
2023-01-31T04:35:52.281Z,99517.06
2023-01-31T04:37:24.236Z,99511.13
2023-01-31T04:38:56.124Z,99511.97
2023-01-31T04:40:28.129Z,99510.25
2023-01-31T04:42:00.087Z,99517.06
2023-01-31T04:43:31.975Z,99511.09
2023-01-31T04:45:04.377Z,99519.66
2023-01-31T04:46:36.619Z,99511.97
2023-01-31T04:48:08.883Z,99517.94
2023-01-31T04:49:41.170Z,99524.81
2023-01-31T04:51:13.049Z,99519.72
2023-01-31T04:52:44.960Z,99520.56
2023-01-31T04:54:16.824Z,99521.38
2023-01-31T04:55:48.754Z,99529.03
2023-01-31T04:57:20.957Z,99517.97
2023-01-31T04:58:52.845Z,99515.41
2023-01-31T05:00:24.695Z,99518.81
2023-01-31T05:01:56.548Z,99506.84
2023-01-31T05:03:30.553Z,99508.56
2023-01-31T05:05:03.201Z,99512.81
2023-01-31T05:06:35.078Z,99530.78
2023-01-31T05:08:06.962Z,99522.28
2023-01-31T05:09:39.209Z,99525.69
2023-01-31T05:11:11.119Z,99525.66
2023-01-31T05:12:42.983Z,99529.97
2023-01-31T05:14:15.296Z,99528.25
2023-01-31T05:15:48.682Z,99527.41
2023-01-31T05:17:26.460Z,99541.91
2023-01-31T05:18:58.440Z,99543.59
2023-01-31T05:20:36.840Z,99537.63
2023-01-31T05:22:08.632Z,99551.31
2023-01-31T05:23:40.453Z,99552.97
2023-01-31T05:25:12.265Z,99552.16
2023-01-31T05:26:44.148Z,99553.88
2023-01-31T05:28:16.003Z,99556.34
2023-01-31T05:29:48.160Z,99568.38
2023-01-31T05:31:20.275Z,99564.13
2023-01-31T05:32:52.310Z,99555.56
2023-01-31T05:34:31.231Z,99563.25
2023-01-31T05:36:03.710Z,99578.59
2023-01-31T05:37:35.958Z,99574.34
2023-01-31T05:39:07.852Z,99570.06
2023-01-31T05:40:39.839Z,99579.50
2023-01-31T05:42:11.690Z,99583.75
2023-01-31T05:43:43.478Z,99584.59
2023-01-31T05:45:16.891Z,99584.53
2023-01-31T05:46:48.919Z,99584.56
2023-01-31T05:48:20.757Z,99583.69
2023-01-31T05:49:52.573Z,99582.00
2023-01-31T05:51:24.596Z,99594.78
2023-01-31T05:52:57.592Z,99583.72
2023-01-31T05:54:29.427Z,99590.47
2023-01-31T05:56:01.564Z,99593.91
2023-01-31T05:57:33.523Z,99594.75
2023-01-31T05:59:05.579Z,99587.09
2023-01-31T06:00:37.429Z,99595.59
2023-01-31T06:02:11.622Z,99593.00
2023-01-31T06:03:43.506Z,99590.41
2023-01-31T06:05:15.389Z,99592.97
2023-01-31T06:06:47.333Z,99598.13
2023-01-31T06:08:19.163Z,99592.13
2023-01-31T06:09:51.002Z,99597.31
2023-01-31T06:11:22.962Z,99597.31
2023-01-31T06:12:54.775Z,99603.28
2023-01-31T06:14:26.705Z,99605.81
2023-01-31T06:15:59.216Z,99607.50
2023-01-31T06:17:32.091Z,99616.91
2023-01-31T06:19:04.151Z,99614.34
2023-01-31T06:20:36.358Z,99612.59
2023-01-31T06:22:08.250Z,99613.44
2023-01-31T06:23:40.783Z,99618.59
2023-01-31T06:25:12.727Z,99627.09
2023-01-31T06:26:44.760Z,99624.53
2023-01-31T06:28:16.739Z,99628.00
2023-01-31T06:29:48.646Z,99629.72
2023-01-31T06:31:20.634Z,99634.88
2023-01-31T06:32:52.593Z,99630.56
2023-01-31T06:34:24.456Z,99627.19
2023-01-31T06:35:59.530Z,99623.78
2023-01-31T06:37:31.918Z,99620.38
2023-01-31T06:39:06.610Z,99617.00
2023-01-31T06:40:38.499Z,99607.63
2023-01-31T06:42:12.904Z,99611.88
2023-01-31T06:43:44.953Z,99616.19
2023-01-31T06:45:17.056Z,99616.22
2023-01-31T06:46:48.940Z,99616.22
2023-01-31T06:48:21.500Z,99622.19
2023-01-31T06:49:53.369Z,99617.13
2023-01-31T06:51:25.237Z,99624.00
2023-01-31T06:52:57.200Z,99627.44
2023-01-31T06:54:29.087Z,99618.06
2023-01-31T06:56:00.929Z,99608.72
2023-01-31T06:57:32.896Z,99621.50
2023-01-31T06:59:04.869Z,99619.84
2023-01-31T07:00:36.855Z,99621.53
2023-01-31T07:02:09.986Z,99619.84
2023-01-31T07:03:42.168Z,99632.66
2023-01-31T07:05:14.377Z,99623.28
2023-01-31T07:06:46.248Z,99615.63
2023-01-31T07:08:18.418Z,99614.78
2023-01-31T07:09:50.216Z,99617.34
2023-01-31T07:11:22.103Z,99611.34
2023-01-31T07:12:53.902Z,99614.78
2023-01-31T07:14:25.730Z,99613.06
2023-01-31T07:15:57.697Z,99604.53
2023-01-31T07:17:30.105Z,99613.91
2023-01-31T07:19:02.120Z,99602.78
2023-01-31T07:20:34.211Z,99604.50
2023-01-31T07:22:06.090Z,99603.63
2023-01-31T07:23:38.002Z,99608.78
2023-01-31T07:25:09.944Z,99604.50
2023-01-31T07:26:41.949Z,99610.50
2023-01-31T07:28:13.921Z,99613.09
2023-01-31T07:29:45.722Z,99606.25
2023-01-31T07:31:17.616Z,99610.53
2023-01-31T07:32:50.120Z,99608.84
2023-01-31T07:34:23.417Z,99604.56
2023-01-31T07:35:55.242Z,99615.69
2023-01-31T07:37:27.165Z,99619.94
2023-01-31T07:39:00.275Z,99614.84
2023-01-31T07:40:32.273Z,99613.97
2023-01-31T07:42:04.245Z,99618.22
2023-01-31T07:43:36.187Z,99618.25
2023-01-31T07:45:33.569Z,99613.13
2023-01-31T07:47:00.604Z,99617.41
2023-01-31T07:48:33.038Z,99619.13
2023-01-31T07:50:05.144Z,99614.84
2023-01-31T07:51:39.229Z,99621.69
2023-01-31T07:53:11.204Z,99611.47
2023-01-31T07:54:43.119Z,99617.47
2023-01-31T07:56:16.246Z,99615.75
2023-01-31T07:57:48.530Z,99614.03
2023-01-31T07:59:20.492Z,99618.31
2023-01-31T08:01:12.573Z,99620.03
2023-01-31T08:03:04.031Z,99616.59
2023-01-31T08:04:36.410Z,99622.59
2023-01-31T08:06:11.812Z,99614.91
2023-01-31T08:07:43.807Z,99613.19
2023-01-31T08:09:15.666Z,99617.47
2023-01-31T08:10:47.535Z,99602.06
2023-01-31T08:12:19.358Z,99614.91
2023-01-31T08:13:51.246Z,99619.16
2023-01-31T08:15:23.302Z,99618.31
2023-01-31T08:16:56.009Z,99615.75
2023-01-31T08:18:27.862Z,99610.63
2023-01-31T08:19:59.649Z,99608.91
2023-01-31T08:21:31.703Z,99614.03
2023-01-31T08:23:03.927Z,99620.00
2023-01-31T08:24:35.810Z,99605.47
2023-01-31T08:26:10.772Z,99606.31
2023-01-31T08:27:42.669Z,99609.75
2023-01-31T08:29:14.528Z,99599.47
2023-01-31T08:30:52.870Z,99607.19
2023-01-31T08:32:31.650Z,99610.59
2023-01-31T08:34:03.677Z,99615.72
2023-01-31T08:35:35.634Z,99600.28
2023-01-31T08:37:07.553Z,99613.13
2023-01-31T08:38:39.691Z,99608.84
2023-01-31T08:40:11.951Z,99608.00
2023-01-31T08:41:43.898Z,99611.41
2023-01-31T08:43:15.936Z,99612.28
2023-01-31T08:44:47.814Z,99626.84
2023-01-31T08:46:19.845Z,99612.31
2023-01-31T08:47:55.867Z,99618.28
2023-01-31T08:49:27.838Z,99611.44
2023-01-31T08:51:01.363Z,99618.28
2023-01-31T08:52:35.760Z,99623.41
2023-01-31T08:54:07.847Z,99625.13
2023-01-31T08:55:39.667Z,99627.69
2023-01-31T08:57:11.901Z,99628.56
2023-01-31T08:58:44.536Z,99626.00
2023-01-31T09:00:17.033Z,99628.56
2023-01-31T09:01:48.943Z,99651.69
2023-01-31T09:03:21.028Z,99633.72
2023-01-31T09:04:52.917Z,99637.13
2023-01-31T09:06:26.261Z,99634.56
2023-01-31T09:07:58.165Z,99646.56
2023-01-31T09:09:30.699Z,99643.13
2023-01-31T09:11:02.838Z,99641.41
2023-01-31T09:12:36.051Z,99634.53
2023-01-31T09:14:07.936Z,99637.13
2023-01-31T09:15:39.847Z,99651.66
2023-01-31T09:17:11.914Z,99641.41
2023-01-31T09:18:43.892Z,99642.28
2023-01-31T09:20:15.791Z,99643.97
2023-01-31T09:21:47.601Z,99638.00
2023-01-31T09:23:20.444Z,99641.41
2023-01-31T09:24:52.326Z,99646.53
2023-01-31T09:26:24.396Z,99640.56
2023-01-31T09:27:56.297Z,99649.09
2023-01-31T09:29:30.797Z,99638.84
2023-01-31T09:31:06.471Z,99650.84
2023-01-31T09:34:18.174Z,99645.69
2023-01-31T09:36:03.282Z,99646.53
2023-01-31T09:37:35.214Z,99643.97
2023-01-31T09:39:07.101Z,99637.13
2023-01-31T09:40:40.024Z,99643.97
2023-01-31T09:42:19.348Z,99635.38
2023-01-31T09:43:52.700Z,99637.13
2023-01-31T09:45:30.907Z,99639.69
2023-01-31T09:47:07.354Z,99637.94
2023-01-31T09:48:39.266Z,99632.78
2023-01-31T09:50:19.634Z,99633.66
2023-01-31T09:51:53.614Z,99638.78
2023-01-31T09:53:34.130Z,99646.47
2023-01-31T09:55:08.532Z,99642.19
2023-01-31T09:56:46.334Z,99641.31
2023-01-31T09:58:24.107Z,99637.91
2023-01-31T10:00:14.730Z,99638.78
2023-01-31T10:01:50.007Z,99626.78
2023-01-31T10:03:34.009Z,99621.63
2023-01-31T10:05:30.719Z,99622.47
2023-01-31T10:07:06.207Z,99625.94
2023-01-31T10:08:41.458Z,99617.38
2023-01-31T10:10:22.631Z,99625.94
2023-01-31T10:11:58.902Z,99622.47
2023-01-31T10:13:34.547Z,99616.47
2023-01-31T10:15:11.274Z,99614.75
2023-01-31T10:16:47.988Z,99620.78
2023-01-31T10:18:29.302Z,99617.31
2023-01-31T10:20:03.872Z,99612.22
2023-01-31T10:21:46.567Z,99621.63
2023-01-31T10:23:21.010Z,99616.44
2023-01-31T10:24:55.129Z,99613.91
2023-01-31T10:26:30.489Z,99617.31
2023-01-31T10:28:21.285Z,99613.88
2023-01-31T10:29:54.325Z,99604.44
2023-01-31T10:31:26.180Z,99604.44
2023-01-31T10:33:02.606Z,99604.41
2023-01-31T10:34:36.627Z,99594.13
2023-01-31T10:36:17.310Z,99598.41
2023-01-31T10:37:56.898Z,99597.56
2023-01-31T10:39:30.895Z,99608.69
2023-01-31T10:41:07.313Z,99594.16
2023-01-31T10:42:39.901Z,99601.84
2023-01-31T10:44:23.503Z,99597.56
2023-01-31T10:45:56.563Z,99594.13
2023-01-31T10:47:31.588Z,99598.41
2023-01-31T10:49:03.915Z,99596.72
2023-01-31T10:50:48.642Z,99596.72
2023-01-31T10:52:39.554Z,99595.88
2023-01-31T10:54:13.418Z,99592.41
2023-01-31T10:55:52.275Z,99595.84
2023-01-31T10:57:24.257Z,99598.41
2023-01-31T10:58:56.738Z,99590.66
2023-01-31T11:00:30.180Z,99597.47
2023-01-31T11:02:03.219Z,99588.00
2023-01-31T11:03:35.492Z,99584.56
2023-01-31T11:05:07.452Z,99585.38
2023-01-31T11:06:42.003Z,99592.22
2023-01-31T11:08:26.205Z,99600.81
2023-01-31T11:09:58.912Z,99592.22
2023-01-31T11:11:30.859Z,99591.38
2023-01-31T11:13:07.527Z,99597.34
2023-01-31T11:14:39.589Z,99590.47
2023-01-31T11:16:11.805Z,99581.03
2023-01-31T11:17:44.087Z,99589.59
2023-01-31T11:19:21.516Z,99581.06
2023-01-31T11:20:53.607Z,99588.75
2023-01-31T11:22:26.761Z,99592.22
2023-01-31T11:24:01.158Z,99585.34
2023-01-31T11:25:33.152Z,99585.31
2023-01-31T11:27:07.400Z,99588.72
2023-01-31T11:28:40.641Z,99578.47
2023-01-31T11:30:21.448Z,99584.50
2023-01-31T11:31:53.716Z,99577.59
2023-01-31T11:33:37.828Z,99572.47
2023-01-31T11:35:30.081Z,99571.63
2023-01-31T11:37:15.796Z,99580.19
2023-01-31T11:38:47.706Z,99575.94
2023-01-31T11:40:39.856Z,99568.25
2023-01-31T11:42:15.763Z,99575.13
2023-01-31T11:43:47.975Z,99575.97
2023-01-31T11:45:21.745Z,99578.56
2023-01-31T11:46:57.464Z,99577.69
2023-01-31T11:48:30.855Z,99574.28
2023-01-31T11:50:02.778Z,99569.97
2023-01-31T11:51:34.656Z,99566.53
2023-01-31T11:53:17.591Z,99563.97
2023-01-31T11:54:56.215Z,99575.13
2023-01-31T11:56:28.522Z,99571.69
2023-01-31T11:58:00.459Z,99581.97
2023-01-31T11:59:32.366Z,99571.72
2023-01-31T12:01:17.666Z,99564.88
2023-01-31T12:02:52.236Z,99573.50
2023-01-31T12:04:30.907Z,99572.63
2023-01-31T12:06:04.310Z,99573.44
2023-01-31T12:08:02.550Z,99577.72
2023-01-31T12:09:42.150Z,99592.31
2023-01-31T12:11:19.733Z,99570.88
2023-01-31T12:12:52.365Z,99594.06
2023-01-31T12:14:25.507Z,99576.91
2023-01-31T12:16:01.627Z,99579.47
2023-01-31T12:17:34.818Z,99579.47
2023-01-31T12:19:06.708Z,99580.28
2023-01-31T12:20:54.336Z,99579.38
2023-01-31T12:22:46.435Z,99585.38
2023-01-31T12:24:21.320Z,99582.81
2023-01-31T12:25:53.437Z,99590.53
2023-01-31T12:27:32.098Z,99585.34
2023-01-31T12:29:14.626Z,99593.94
2023-01-31T12:30:55.611Z,99591.31
2023-01-31T12:32:37.767Z,99590.44
2023-01-31T12:34:09.794Z,99589.59
2023-01-31T12:35:41.619Z,99599.00
2023-01-31T12:37:29.111Z,99595.56
2023-01-31T12:39:12.953Z,99592.97
2023-01-31T12:40:50.697Z,99593.81
2023-01-31T12:42:25.687Z,99596.41
2023-01-31T12:44:16.605Z,99586.22
2023-01-31T12:45:48.618Z,99594.81
2023-01-31T12:47:41.187Z,99602.50
2023-01-31T12:49:13.507Z,99606.81
2023-01-31T12:50:48.052Z,99605.91
2023-01-31T12:52:20.130Z,99599.03
2023-01-31T12:53:55.148Z,99596.47
2023-01-31T12:55:33.251Z,99605.91
2023-01-31T12:57:05.097Z,99607.66
2023-01-31T12:58:37.021Z,99611.03
2023-01-31T13:00:15.177Z,99612.75
2023-01-31T13:01:52.777Z,99600.78
2023-01-31T13:03:43.412Z,99595.63
2023-01-31T13:05:29.508Z,99609.34
2023-01-31T13:07:03.236Z,99604.19
2023-01-31T13:08:35.553Z,99603.34
2023-01-31T13:10:08.370Z,99602.47
2023-01-31T13:11:41.891Z,99614.44
2023-01-31T13:13:18.565Z,99618.75
2023-01-31T13:14:51.153Z,99613.59
2023-01-31T13:16:24.394Z,99617.88
2023-01-31T13:17:58.049Z,99611.84
2023-01-31T13:19:30.061Z,99614.41
2023-01-31T13:21:05.937Z,99621.28
2023-01-31T13:22:56.734Z,99616.97
2023-01-31T13:24:38.466Z,99623.78
2023-01-31T13:26:11.914Z,99626.31
2023-01-31T13:27:47.676Z,99628.81
2023-01-31T13:29:19.714Z,99619.34
2023-01-31T13:31:01.312Z,99620.19
2023-01-31T13:32:39.958Z,99625.38
2023-01-31T13:34:44.060Z,99629.66
2023-01-31T13:36:26.163Z,99627.94
2023-01-31T13:37:59.637Z,99639.16
2023-01-31T13:39:33.797Z,99629.78
2023-01-31T13:41:06.127Z,99628.00
2023-01-31T13:42:37.969Z,99634.03
2023-01-31T13:44:12.227Z,99643.50
2023-01-31T13:46:02.607Z,99645.25
2023-01-31T13:47:39.607Z,99636.72
2023-01-31T13:49:17.405Z,99644.50
2023-01-31T13:50:51.162Z,99644.50
2023-01-31T13:52:42.531Z,99650.50
2023-01-31T13:54:16.296Z,99645.38
2023-01-31T13:55:48.591Z,99649.66
2023-01-31T13:57:30.221Z,99641.09
2023-01-31T13:59:02.233Z,99645.38
2023-01-31T14:00:47.739Z,99649.66
2023-01-31T14:02:19.701Z,99639.38
2023-01-31T14:04:10.081Z,99642.78
2023-01-31T14:05:51.077Z,99647.09
2023-01-31T14:07:23.693Z,99655.72
2023-01-31T14:08:59.444Z,99647.09
2023-01-31T14:10:32.923Z,99654.00
2023-01-31T14:12:07.724Z,99660.03
2023-01-31T14:13:41.249Z,99658.34
2023-01-31T14:15:31.550Z,99648.03
2023-01-31T14:17:26.781Z,99651.50
2023-01-31T14:19:02.295Z,99660.06
2023-01-31T14:20:34.319Z,99657.50
2023-01-31T14:22:13.035Z,99662.66
2023-01-31T14:23:47.802Z,99657.56
2023-01-31T14:25:20.128Z,99661.00
2023-01-31T14:26:53.300Z,99664.41
2023-01-31T14:28:26.542Z,99661.00
2023-01-31T14:30:19.068Z,99669.56
2023-01-31T14:31:51.216Z,99674.75
2023-01-31T14:33:23.763Z,99674.75
2023-01-31T14:34:55.786Z,99667.91
2023-01-31T14:36:27.648Z,99674.75
2023-01-31T14:38:11.945Z,99679.03
2023-01-31T14:39:59.010Z,99679.06
2023-01-31T14:41:33.980Z,99684.19
2023-01-31T14:43:09.258Z,99679.06
2023-01-31T14:44:47.139Z,99679.94
2023-01-31T14:46:29.475Z,99684.19
2023-01-31T14:48:09.390Z,99685.03
2023-01-31T14:49:41.173Z,99679.94
2023-01-31T14:51:13.056Z,99685.03
2023-01-31T14:52:58.385Z,99693.59
2023-01-31T14:54:30.510Z,99679.94
2023-01-31T14:56:21.115Z,99689.31
2023-01-31T14:57:54.091Z,99689.34
2023-01-31T14:59:37.201Z,99688.50
2023-01-31T15:01:09.088Z,99691.91
2023-01-31T15:02:59.791Z,99697.06
2023-01-31T15:04:32.376Z,99703.91
2023-01-31T15:06:15.328Z,99703.03
2023-01-31T15:08:05.737Z,99706.47
2023-01-31T15:09:38.385Z,99702.19
2023-01-31T15:11:40.602Z,99709.91
2023-01-31T15:13:31.799Z,99715.03
2023-01-31T15:15:05.793Z,99711.63
2023-01-31T15:16:38.078Z,99709.91
2023-01-31T15:18:19.752Z,99718.47
2023-01-31T15:20:23.829Z,99725.31
2023-01-31T15:21:56.708Z,99715.88
2023-01-31T15:23:29.143Z,99727.91
2023-01-31T15:25:04.165Z,99722.75
2023-01-31T15:26:36.117Z,99727.88
2023-01-31T15:28:10.903Z,99725.31
2023-01-31T15:29:45.412Z,99723.59
2023-01-31T15:31:18.885Z,99729.56
2023-01-31T15:34:49.254Z,99739.00
2023-01-31T15:36:24.911Z,99747.56
2023-01-31T15:38:06.048Z,99748.41
2023-01-31T15:39:41.838Z,99756.09
2023-01-31T15:41:13.640Z,99749.28
2023-01-31T15:42:45.550Z,99755.25
2023-01-31T15:44:18.885Z,99750.13
2023-01-31T15:45:54.120Z,99751.00
2023-01-31T15:47:28.133Z,99767.22
2023-01-31T15:49:00.924Z,99754.41
2023-01-31T15:50:33.693Z,99763.81
2023-01-31T15:52:08.068Z,99765.53
2023-01-31T15:53:40.446Z,99768.94
2023-01-31T15:55:16.326Z,99770.66
2023-01-31T15:56:48.194Z,99769.78
2023-01-31T15:58:20.970Z,99777.50
2023-01-31T15:59:52.894Z,99780.06
2023-01-31T16:01:24.883Z,99772.38
2023-01-31T16:04:47.469Z,99782.63
2023-01-31T16:06:22.137Z,99779.19
2023-01-31T16:07:54.064Z,99780.06
2023-01-31T16:09:32.543Z,99787.78
2023-01-31T16:11:08.351Z,99785.19
2023-01-31T16:12:41.121Z,99785.19
2023-01-31T16:14:12.936Z,99787.75
2023-01-31T16:15:44.763Z,99785.16
2023-01-31T16:17:16.704Z,99791.16
2023-01-31T16:18:52.890Z,99780.03
2023-01-31T16:20:38.145Z,99790.31
2023-01-31T16:22:25.114Z,99795.44
2023-01-31T16:23:57.887Z,99794.56
2023-01-31T16:25:29.725Z,99795.41
2023-01-31T16:27:03.809Z,99789.44
2023-01-31T16:28:45.343Z,99799.72
2023-01-31T16:30:17.616Z,99793.69
2023-01-31T16:31:51.252Z,99795.41
2023-01-31T16:33:23.509Z,99790.28
2023-01-31T16:34:56.540Z,99798.81
2023-01-31T16:36:30.474Z,99803.09
2023-01-31T16:39:44.289Z,99808.25
2023-01-31T16:41:16.174Z,99812.53
2023-01-31T16:42:48.092Z,99815.09
2023-01-31T16:44:20.521Z,99817.63
2023-01-31T16:45:53.898Z,99823.63
2023-01-31T16:47:51.523Z,99829.63
2023-01-31T16:49:23.485Z,99818.50
2023-01-31T16:50:56.418Z,99823.59
2023-01-31T16:52:29.511Z,99823.59
2023-01-31T16:54:20.225Z,99828.75
2023-01-31T16:56:10.739Z,99832.19
2023-01-31T16:57:42.603Z,99827.91
2023-01-31T16:59:32.547Z,99832.16
2023-01-31T17:01:12.070Z,99823.59
2023-01-31T17:02:44.002Z,99833.00
2023-01-31T17:04:17.427Z,99833.00
2023-01-31T17:05:49.220Z,99836.41
2023-01-31T17:07:33.729Z,99839.84
2023-01-31T17:09:06.767Z,99839.84
2023-01-31T17:10:38.634Z,99836.38
2023-01-31T17:12:20.830Z,99842.34
2023-01-31T17:13:52.863Z,99840.59
2023-01-31T17:15:24.731Z,99840.63
2023-01-31T17:16:56.640Z,99844.06
2023-01-31T17:18:28.469Z,99843.25
2023-01-31T17:20:00.419Z,99842.38
2023-01-31T17:21:33.563Z,99839.78
2023-01-31T17:23:06.605Z,99839.78
2023-01-31T17:24:38.388Z,99836.34
2023-01-31T17:26:20.558Z,99839.75
2023-01-31T17:27:52.412Z,99837.19
2023-01-31T17:29:26.303Z,99844.00
2023-01-31T17:30:58.259Z,99844.84
2023-01-31T17:32:32.254Z,99852.56
2023-01-31T17:34:04.272Z,99848.25
2023-01-31T17:35:36.818Z,99855.94
2023-01-31T17:38:42.901Z,99847.38
2023-01-31T17:40:14.844Z,99847.31
2023-01-31T17:41:47.491Z,99860.13
2023-01-31T18:42:35.183Z,99893.50
2023-01-31T18:44:07.077Z,99900.34
2023-01-31T18:45:38.930Z,99890.91
2023-01-31T18:47:11.457Z,99902.03
2023-01-31T18:48:44.449Z,99896.03
2023-01-31T18:50:16.479Z,99894.31
2023-01-31T18:51:49.989Z,99908.03
2023-01-31T18:53:22.106Z,99903.78
2023-01-31T18:54:54.742Z,99904.59
2023-01-31T18:56:26.758Z,99905.47
2023-01-31T18:57:58.647Z,99908.88
2023-01-31T18:59:30.516Z,99907.16
2023-01-31T19:01:06.938Z,99914.03
2023-01-31T19:02:38.810Z,99908.88
2023-01-31T19:04:10.785Z,99908.91
2023-01-31T19:05:42.620Z,99913.22
2023-01-31T19:07:14.407Z,99908.88
2023-01-31T19:08:52.345Z,99916.59
2023-01-31T19:10:24.875Z,99914.03
2023-01-31T19:11:59.100Z,99914.03
2023-01-31T19:13:33.026Z,99918.22
2023-01-31T19:15:09.095Z,99915.72
2023-01-31T19:16:41.467Z,99920.00
2023-01-31T19:18:15.142Z,99920.84
2023-01-31T19:19:46.985Z,99924.28
2023-01-31T19:21:29.383Z,99926.88
2023-01-31T19:23:01.329Z,99933.72
2023-01-31T19:24:33.375Z,99924.31
2023-01-31T19:26:05.284Z,99939.69
2023-01-31T19:27:37.143Z,99935.41
2023-01-31T19:29:10.069Z,99935.41
2023-01-31T19:30:42.124Z,99936.25
2023-01-31T19:32:14.011Z,99937.94
2023-01-31T19:33:49.895Z,99943.88
2023-01-31T19:35:22.053Z,99937.06
2023-01-31T19:36:54.161Z,99944.75
2023-01-31T19:38:26.077Z,99941.31
2023-01-31T19:39:57.952Z,99937.94
2023-01-31T19:41:30.048Z,99947.22
2023-01-31T19:43:01.919Z,99942.97
2023-01-31T19:44:33.741Z,99946.34
2023-01-31T19:46:06.027Z,99946.34
2023-01-31T19:47:37.944Z,99950.63
2023-01-31T19:49:09.831Z,99944.66